エカテリンブルク の空港の天気 - METARとTAF

コルツォヴォ空港 ( USSS / SVX ) - ロシア エカテリンブルク
飛行場実況気象(Metar)
観測時間04/25 19:30 YEKT (04/25 14:30 UTC)
風向・風速西南西 4m/s
視程10km以上
天気現象
全天の4割程度の雲 雲底高度 1400m
気温2℃
湿度87%
気圧1011hPa
METARUSSS 251430Z 24004MPS 9999 SCT046 02/00 Q1011 R26R/120050 NOSIG RMK QFE737/0983
過去の天気等 Google飛行場航空写真 Wunderground天気予報

過去48時間のMETAR

飛行場予報(TAF)
発表時間: 4/25 18:50 YEKT (4/25 13:50 UTC)
予報対象時間: 25日20時 YEKT ~ 26日20時 YEKT
風向・風速西 3m/s
視程10km以上
全天の4割程度の雲 雲底高度 610m
25日22時 YEKT ~ 25日23時 YEKT に徐々に
視程3,100m
天気現象もや
全天の4割程度の雲 雲底高度 340m
25日23時 YEKT ~ 26日9時 YEKT に一時的に
視程300m
天気現象氷霧
全天を覆う雲 鉛直視程 60m
26日9時 YEKT ~ 26日11時 YEKT に徐々に
視程10km以上
天気現象運行に影響にある天気現象が終了
全天の4割程度の雲 雲底高度 610m
TAF USSS 251350Z 2515/2615 27003MPS 9999 SCT020
BECMG 2517/2518 3100 BR SCT011
TEMPO 2518/2604 0300 FZFG VV002
BECMG 2604/2606 9999 NSW SCT020